Time;durP1;ratioP1;P1;durP2;ratioP2;P2;SDS_P1;SDS_P2;PMS_P1;PMS_P2;Temp;Humidity;BMP_temperature;BMP_pressure;BME280_temperature;BME280_humidity;BME280_pressure;Samples;Min_cycle;Max_cycle;Signal;HPM_P1;HPM_P2
2022/10/05 00:00:51;;;;;;;7.13;5.17;;;;;;;;;;4964164;28;20449;-56
2022/10/05 00:03:18;;;;;;;9.83;4.50;;;;;;;;;;5003300;28;20464;-57
2022/10/05 00:05:45;;;;;;;4.70;3.90;;;;;;;;;;4975103;28;20441;-56
2022/10/05 00:08:14;;;;;;;5.63;3.90;;;;;;;;;;4975022;28;20489;-56
2022/10/05 00:10:40;;;;;;;10.20;4.90;;;;;;;;;;4950585;28;20942;-57
2022/10/05 00:13:11;;;;;;;5.57;4.50;;;;;;;;;;4973260;28;20441;-56
2022/10/05 00:15:37;;;;;;;6.20;4.83;;;;;;;;;;4966609;28;20526;-57
2022/10/05 00:18:08;;;;;;;7.77;4.70;;;;;;;;;;4978641;28;20801;-58
2022/10/05 00:20:34;;;;;;;7.00;3.83;;;;;;;;;;4958952;28;20629;-58
2022/10/05 00:23:00;;;;;;;6.23;4.60;;;;;;;;;;4979036;28;20449;-57
2022/10/05 00:25:29;;;;;;;4.87;3.90;;;;;;;;;;4949474;28;20611;-56
2022/10/05 00:27:56;;;;;;;8.27;4.20;;;;;;;;;;4965652;28;21231;-56
2022/10/05 00:30:43;;;;;;;6.23;3.97;;;;;;;;;;4977667;28;20437;-58
2022/10/05 00:33:09;;;;;;;4.37;3.97;;;;;;;;;;4917982;28;20952;-57
2022/10/05 00:35:35;;;;;;;7.60;4.80;;;;;;;;;;4970621;28;20503;-56
2022/10/05 00:38:01;;;;;;;9.73;4.60;;;;;;;;;;4953168;28;20457;-58
2022/10/05 00:40:40;;;;;;;4.70;4.20;;;;;;;;;;4973868;28;20470;-58
2022/10/05 00:43:06;;;;;;;5.63;4.23;;;;;;;;;;4947670;28;20913;-58
2022/10/05 00:45:33;;;;;;;9.77;4.90;;;;;;;;;;4969371;28;20942;-56
2022/10/05 00:48:14;;;;;;;6.07;4.07;;;;;;;;;;4977491;28;20480;-58
2022/10/05 00:50:59;;;;;;;5.23;3.70;;;;;;;;;;4971228;28;20496;-57
2022/10/05 00:53:28;;;;;;;8.57;4.67;;;;;;;;;;4971415;28;20456;-56
2022/10/05 00:55:58;;;;;;;4.87;4.10;;;;;;;;;;4974613;28;20425;-57
2022/10/05 00:58:47;;;;;;;5.07;3.90;;;;;;;;;;4963981;28;20445;-56
2022/10/05 01:01:44;;;;;;;6.67;4.30;;;;;;;;;;5005688;28;20471;-56
2022/10/05 01:04:18;;;;;;;5.10;4.50;;;;;;;;;;4967648;28;21153;-57
2022/10/05 01:06:51;;;;;;;10.43;5.10;;;;;;;;;;4977040;28;20448;-58
2022/10/05 01:09:25;;;;;;;7.57;5.07;;;;;;;;;;4973983;28;20445;-57
2022/10/05 01:11:53;;;;;;;5.83;4.27;;;;;;;;;;4956043;28;20437;-57
2022/10/05 01:14:21;;;;;;;5.73;4.83;;;;;;;;;;5003945;28;20652;-58
2022/10/05 01:17:05;;;;;;;7.23;4.93;;;;;;;;;;4964514;28;21024;-57
2022/10/05 01:19:40;;;;;;;10.20;4.60;;;;;;;;;;4976936;28;20441;-58
2022/10/05 01:22:15;;;;;;;8.90;5.57;;;;;;;;;;4961947;28;20440;-57
2022/10/05 01:24:44;;;;;;;6.00;4.27;;;;;;;;;;4983212;28;20500;-57
2022/10/05 01:27:18;;;;;;;8.57;5.03;;;;;;;;;;4956965;28;20457;-58
2022/10/05 01:29:54;;;;;;;4.90;3.63;;;;;;;;;;4979802;28;20447;-56
2022/10/05 01:32:36;;;;;;;9.07;5.17;;;;;;;;;;4973943;28;21214;-57
2022/10/05 01:35:23;;;;;;;5.30;4.40;;;;;;;;;;4979024;28;20468;-56
2022/10/05 01:37:56;;;;;;;6.37;4.40;;;;;;;;;;4950185;28;20961;-57
2022/10/05 01:40:25;;;;;;;8.77;4.93;;;;;;;;;;5002832;28;20464;-57
2022/10/05 01:43:07;;;;;;;5.10;4.20;;;;;;;;;;4951242;28;20905;-57
2022/10/05 01:45:56;;;;;;;5.77;4.90;;;;;;;;;;4965141;28;20445;-58
2022/10/05 01:48:26;;;;;;;9.40;4.60;;;;;;;;;;4964614;28;20495;-57
2022/10/05 01:50:55;;;;;;;6.27;4.03;;;;;;;;;;4975408;28;20441;-57
2022/10/05 01:53:40;;;;;;;5.97;4.80;;;;;;;;;;4955644;28;20437;-56
2022/10/05 01:56:06;;;;;;;5.30;4.57;;;;;;;;;;4978143;28;20437;-57
2022/10/05 01:58:38;;;;;;;4.80;4.30;;;;;;;;;;4943359;28;21060;-57
2022/10/05 02:01:07;;;;;;;6.23;4.70;;;;;;;;;;5002958;28;21378;-57
2022/10/05 02:03:36;;;;;;;5.00;4.10;;;;;;;;;;4982327;28;20447;-58
2022/10/05 02:06:16;;;;;;;5.40;4.47;;;;;;;;;;5004556;28;20445;-58
2022/10/05 02:08:45;;;;;;;5.73;4.53;;;;;;;;;;4976235;28;20988;-58
2022/10/05 02:11:12;;;;;;;7.03;4.80;;;;;;;;;;4976868;28;20441;-55
2022/10/05 02:13:39;;;;;;;10.67;5.47;;;;;;;;;;4998952;28;20554;-57
2022/10/05 02:16:15;;;;;;;6.97;5.57;;;;;;;;;;4975965;28;20452;-58
2022/10/05 02:18:43;;;;;;;6.57;4.90;;;;;;;;;;4955007;28;20455;-57
2022/10/05 02:21:09;;;;;;;6.10;5.00;;;;;;;;;;4972273;28;20467;-57
2022/10/05 02:23:36;;;;;;;7.67;5.60;;;;;;;;;;4966605;28;20549;-58
2022/10/05 02:26:02;;;;;;;5.30;4.67;;;;;;;;;;4979984;28;20444;-56
2022/10/05 02:28:47;;;;;;;7.67;5.40;;;;;;;;;;4961871;28;20485;-57
2022/10/05 02:31:21;;;;;;;6.13;4.73;;;;;;;;;;5006345;28;20436;-57
2022/10/05 02:33:47;;;;;;;8.10;4.83;;;;;;;;;;4959103;28;20467;-57
2022/10/05 02:36:43;;;;;;;7.37;5.30;;;;;;;;;;4978632;28;20483;-60
2022/10/05 02:39:09;;;;;;;6.40;5.10;;;;;;;;;;4960426;28;21233;-57
2022/10/05 02:41:38;;;;;;;5.17;4.67;;;;;;;;;;4983842;28;20555;-58
2022/10/05 02:44:13;;;;;;;8.83;5.03;;;;;;;;;;4972450;28;20515;-58
2022/10/05 02:46:44;;;;;;;10.07;7.10;;;;;;;;;;4976830;28;20992;-57
2022/10/05 02:49:13;;;;;;;9.13;5.33;;;;;;;;;;4979997;28;20477;-58
2022/10/05 02:51:52;;;;;;;7.87;6.03;;;;;;;;;;4977851;28;20440;-58
2022/10/05 02:54:40;;;;;;;6.00;5.17;;;;;;;;;;4975112;28;21159;-57
2022/10/05 02:57:21;;;;;;;8.43;6.10;;;;;;;;;;4978064;28;20956;-58
2022/10/05 02:59:51;;;;;;;8.90;6.50;;;;;;;;;;4961355;28;20453;-57
2022/10/05 03:02:20;;;;;;;6.80;5.73;;;;;;;;;;5002492;28;20436;-57
2022/10/05 03:04:47;;;;;;;6.87;6.00;;;;;;;;;;4965982;28;20452;-58
2022/10/05 03:07:20;;;;;;;6.27;4.90;;;;;;;;;;4978376;28;20460;-58
2022/10/05 03:10:03;;;;;;;7.50;5.47;;;;;;;;;;4957994;28;21044;-58
2022/10/05 03:12:44;;;;;;;7.70;5.90;;;;;;;;;;4981645;28;20441;-55
2022/10/05 03:15:31;;;;;;;7.93;5.57;;;;;;;;;;4960668;28;20445;-56
2022/10/05 03:18:04;;;;;;;6.03;5.30;;;;;;;;;;4972865;28;20436;-58
2022/10/05 03:20:30;;;;;;;7.50;5.77;;;;;;;;;;4961600;28;20567;-57
2022/10/05 03:23:02;;;;;;;12.50;6.23;;;;;;;;;;4982836;28;20472;-56
2022/10/05 03:25:36;;;;;;;10.73;5.90;;;;;;;;;;4968784;28;20421;-58
2022/10/05 03:28:15;;;;;;;9.73;6.50;;;;;;;;;;5001273;28;20472;-57
2022/10/05 03:30:44;;;;;;;7.63;5.87;;;;;;;;;;4962512;28;20491;-57
2022/10/05 03:33:37;;;;;;;8.67;6.80;;;;;;;;;;4998009;28;21573;-58
2022/10/05 03:36:06;;;;;;;12.03;5.67;;;;;;;;;;4975200;28;20460;-58
2022/10/05 03:38:51;;;;;;;9.50;6.50;;;;;;;;;;5003351;28;20480;-59
2022/10/05 03:41:19;;;;;;;8.30;7.03;;;;;;;;;;4955978;28;20463;-58
2022/10/05 03:43:51;;;;;;;6.53;5.57;;;;;;;;;;4969604;28;20477;-57
2022/10/05 03:46:20;;;;;;;8.07;7.27;;;;;;;;;;4975401;28;20516;-57
2022/10/05 03:48:49;;;;;;;8.87;6.87;;;;;;;;;;4979634;28;20481;-58
2022/10/05 03:51:17;;;;;;;9.63;6.50;;;;;;;;;;4951717;28;20539;-57
2022/10/05 03:53:56;;;;;;;12.23;7.60;;;;;;;;;;5006160;28;20449;-57
2022/10/05 03:56:25;;;;;;;11.57;6.63;;;;;;;;;;4969311;28;20432;-58
2022/10/05 03:58:53;;;;;;;8.07;7.00;;;;;;;;;;4974499;28;20469;-57
2022/10/05 04:01:21;;;;;;;9.90;7.20;;;;;;;;;;4951054;28;20441;-57
2022/10/05 04:03:52;;;;;;;9.70;7.37;;;;;;;;;;4992081;28;20476;-57
2022/10/05 04:06:19;;;;;;;8.93;7.97;;;;;;;;;;4948939;28;20442;-58
2022/10/05 04:08:47;;;;;;;9.40;6.50;;;;;;;;;;5003200;28;20484;-59
2022/10/05 04:11:19;;;;;;;8.43;6.60;;;;;;;;;;4976390;28;21907;-58
2022/10/05 04:13:51;;;;;;;8.70;7.50;;;;;;;;;;4975389;28;20442;-58
2022/10/05 04:16:28;;;;;;;12.60;7.90;;;;;;;;;;5001193;28;20429;-58
2022/10/05 04:18:56;;;;;;;11.47;7.20;;;;;;;;;;4972911;28;20444;-56
2022/10/05 04:21:23;;;;;;;9.40;7.33;;;;;;;;;;4981166;28;20439;-58
2022/10/05 04:23:59;;;;;;;8.70;7.60;;;;;;;;;;4964488;28;20446;-58
2022/10/05 04:26:46;;;;;;;9.83;7.77;;;;;;;;;;4963605;28;20437;-56
2022/10/05 04:29:14;;;;;;;10.97;8.27;;;;;;;;;;4957323;28;20480;-56
2022/10/05 04:31:45;;;;;;;13.80;8.07;;;;;;;;;;4951669;28;20457;-58
2022/10/05 04:34:15;;;;;;;10.30;7.73;;;;;;;;;;4970638;28;21068;-56
2022/10/05 04:36:45;;;;;;;12.03;10.07;;;;;;;;;;4979065;28;20782;-58
2022/10/05 04:39:14;;;;;;;9.83;8.87;;;;;;;;;;4977841;28;20444;-59
2022/10/05 04:41:40;;;;;;;13.40;9.00;;;;;;;;;;4979072;28;20457;-58
2022/10/05 04:44:22;;;;;;;11.87;10.07;;;;;;;;;;4971170;28;20428;-57
2022/10/05 04:47:07;;;;;;;11.43;9.23;;;;;;;;;;5002134;28;20950;-58
2022/10/05 04:49:34;;;;;;;9.50;7.47;;;;;;;;;;4943839;28;21794;-57
2022/10/05 04:52:00;;;;;;;12.27;8.23;;;;;;;;;;4964347;28;20429;-57
2022/10/05 04:54:45;;;;;;;11.50;8.67;;;;;;;;;;4952513;28;21272;-57
2022/10/05 04:57:13;;;;;;;9.53;8.27;;;;;;;;;;4974636;28;20452;-58
2022/10/05 04:59:58;;;;;;;11.43;8.13;;;;;;;;;;4977232;28;20445;-58
2022/10/05 05:02:42;;;;;;;15.93;9.03;;;;;;;;;;4951514;28;21554;-58
2022/10/05 05:05:14;;;;;;;10.47;9.43;;;;;;;;;;4945152;28;20492;-60
2022/10/05 05:07:42;;;;;;;21.77;8.70;;;;;;;;;;4970147;28;20476;-58
2022/10/05 05:10:29;;;;;;;8.47;7.03;;;;;;;;;;4942057;28;20447;-58
2022/10/05 05:13:12;;;;;;;11.93;8.67;;;;;;;;;;5006653;28;20920;-57
2022/10/05 05:15:38;;;;;;;10.83;6.87;;;;;;;;;;4942718;28;20459;-57
2022/10/05 05:18:04;;;;;;;11.77;8.50;;;;;;;;;;4977102;28;20429;-57
2022/10/05 05:20:49;;;;;;;9.87;7.83;;;;;;;;;;4953048;28;20456;-57
2022/10/05 05:23:18;;;;;;;11.40;7.43;;;;;;;;;;4974289;28;20437;-57
2022/10/05 05:25:47;;;;;;;11.10;7.80;;;;;;;;;;4975190;28;20440;-57
2022/10/05 05:28:16;;;;;;;13.03;7.50;;;;;;;;;;5003525;28;20491;-57
2022/10/05 05:30:42;;;;;;;11.87;8.87;;;;;;;;;;4953661;28;21001;-57
2022/10/05 05:33:11;;;;;;;11.10;7.70;;;;;;;;;;4975838;28;20449;-57
2022/10/05 05:35:37;;;;;;;14.27;8.80;;;;;;;;;;4958044;28;20441;-57
2022/10/05 05:38:06;;;;;;;11.67;9.27;;;;;;;;;;4980117;28;20429;-57
2022/10/05 05:40:33;;;;;;;11.23;7.60;;;;;;;;;;4953296;28;20520;-56
2022/10/05 05:43:00;;;;;;;13.07;8.93;;;;;;;;;;4981902;28;20441;-57
2022/10/05 05:45:30;;;;;;;12.77;8.27;;;;;;;;;;4972188;28;20968;-57
2022/10/05 05:47:57;;;;;;;10.20;8.97;;;;;;;;;;4979367;28;20485;-57
2022/10/05 05:50:42;;;;;;;12.20;9.27;;;;;;;;;;5011871;28;20531;-55
2022/10/05 05:53:12;;;;;;;10.80;8.67;;;;;;;;;;4942450;28;20425;-57
2022/10/05 05:55:39;;;;;;;10.10;8.40;;;;;;;;;;4962650;28;20452;-57
2022/10/05 05:58:14;;;;;;;12.17;9.43;;;;;;;;;;5003851;28;20433;-56
2022/10/05 06:00:45;;;;;;;14.27;10.03;;;;;;;;;;4995684;28;20622;-56
2022/10/05 06:03:26;;;;;;;13.87;8.83;;;;;;;;;;5000925;28;20595;-57
2022/10/05 06:06:16;;;;;;;11.10;8.33;;;;;;;;;;4972078;28;20492;-57
2022/10/05 06:08:42;;;;;;;13.50;9.63;;;;;;;;;;4949415;28;21366;-56
2022/10/05 06:11:15;;;;;;;11.80;8.73;;;;;;;;;;4977299;28;20559;-57
2022/10/05 06:13:41;;;;;;;12.43;8.67;;;;;;;;;;4967552;28;20786;-56
2022/10/05 06:16:11;;;;;;;8.83;7.13;;;;;;;;;;4954120;28;22519;-56
2022/10/05 06:18:39;;;;;;;13.07;8.73;;;;;;;;;;4967807;28;20425;-57
2022/10/05 06:21:05;;;;;;;12.43;8.40;;;;;;;;;;4961205;28;20879;-56
2022/10/05 06:23:39;;;;;;;12.43;9.27;;;;;;;;;;4967199;28;20437;-57
2022/10/05 06:26:11;;;;;;;9.77;8.80;;;;;;;;;;4991783;28;20536;-56
2022/10/05 06:28:37;;;;;;;13.60;8.00;;;;;;;;;;4971426;28;20492;-57
2022/10/05 06:31:10;;;;;;;9.63;8.63;;;;;;;;;;4951599;28;20518;-56
2022/10/05 06:33:44;;;;;;;9.90;7.23;;;;;;;;;;5011787;28;20461;-56
2022/10/05 06:36:10;;;;;;;8.50;6.00;;;;;;;;;;4957855;28;20558;-57
2022/10/05 06:38:36;;;;;;;8.00;6.10;;;;;;;;;;4981667;28;20444;-55
2022/10/05 06:41:05;;;;;;;6.90;6.20;;;;;;;;;;4958161;28;20515;-57
2022/10/05 06:43:46;;;;;;;8.17;6.80;;;;;;;;;;4979285;28;20182;-56
2022/10/05 06:46:14;;;;;;;9.80;7.50;;;;;;;;;;4947153;28;20447;-56
2022/10/05 06:48:40;;;;;;;10.93;6.57;;;;;;;;;;5002563;28;20489;-59
2022/10/05 06:51:17;;;;;;;9.00;7.63;;;;;;;;;;4940208;28;20438;-57
2022/10/05 06:54:02;;;;;;;10.93;6.67;;;;;;;;;;5002525;28;20436;-56
2022/10/05 06:56:32;;;;;;;8.40;6.70;;;;;;;;;;4954920;28;20455;-57
2022/10/05 06:59:17;;;;;;;11.30;7.13;;;;;;;;;;5000407;28;20858;-57
2022/10/05 07:02:02;;;;;;;7.67;6.23;;;;;;;;;;4938528;28;20459;-55
2022/10/05 07:04:40;;;;;;;10.43;7.40;;;;;;;;;;4974960;28;21240;-56
2022/10/05 07:07:06;;;;;;;9.20;7.50;;;;;;;;;;4983202;28;20498;-57
2022/10/05 07:09:46;;;;;;;9.67;7.63;;;;;;;;;;4974738;28;20474;-58
2022/10/05 07:12:12;;;;;;;14.23;7.70;;;;;;;;;;4969979;28;20449;-56
2022/10/05 07:14:56;;;;;;;10.73;8.27;;;;;;;;;;4974899;28;20433;-56
2022/10/05 07:17:25;;;;;;;8.90;8.00;;;;;;;;;;4951949;28;20447;-55
2022/10/05 07:20:03;;;;;;;9.20;8.20;;;;;;;;;;4971412;28;20440;-56
2022/10/05 07:22:55;;;;;;;10.90;9.70;;;;;;;;;;4939350;28;21013;-56
2022/10/05 07:25:21;;;;;;;10.60;9.27;;;;;;;;;;4974117;28;21004;-56
2022/10/05 07:27:52;;;;;;;11.00;9.83;;;;;;;;;;4956693;28;20542;-56
2022/10/05 07:30:18;;;;;;;13.27;10.00;;;;;;;;;;4968111;28;20567;-56
2022/10/05 07:32:54;;;;;;;9.77;8.50;;;;;;;;;;4951213;28;20476;-56
2022/10/05 07:38:16;;;;;;;13.63;9.17;;;;;;;;;;4964449;28;20643;-55
2022/10/05 07:40:47;;;;;;;11.50;7.80;;;;;;;;;;4970510;28;20473;-56
2022/10/05 07:43:18;;;;;;;7.60;6.87;;;;;;;;;;4977288;28;20460;-56
2022/10/05 07:45:56;;;;;;;9.73;8.70;;;;;;;;;;4977364;28;20508;-55
2022/10/05 07:48:25;;;;;;;10.00;7.77;;;;;;;;;;4969980;28;20500;-56
2022/10/05 07:50:54;;;;;;;12.63;9.60;;;;;;;;;;4974439;28;20433;-56
2022/10/05 07:53:39;;;;;;;9.20;7.80;;;;;;;;;;4938839;28;20468;-55
2022/10/05 07:56:28;;;;;;;10.17;7.50;;;;;;;;;;4950837;28;20450;-56
2022/10/05 07:59:01;;;;;;;10.53;7.87;;;;;;;;;;4976517;28;20425;-55
2022/10/05 08:01:28;;;;;;;9.10;7.73;;;;;;;;;;4974163;28;20535;-58
2022/10/05 08:04:07;;;;;;;9.57;7.90;;;;;;;;;;4999631;28;20473;-57
2022/10/05 08:06:51;;;;;;;8.20;7.00;;;;;;;;;;4953807;28;20622;-56
2022/10/05 08:09:44;;;;;;;10.10;8.07;;;;;;;;;;5007311;28;20484;-57
2022/10/05 08:12:24;;;;;;;8.30;6.83;;;;;;;;;;4953333;28;20503;-57
2022/10/05 08:15:02;;;;;;;11.50;7.70;;;;;;;;;;5005030;28;21000;-57
2022/10/05 08:17:31;;;;;;;9.30;7.47;;;;;;;;;;4955856;28;20440;-55
2022/10/05 08:20:26;;;;;;;9.53;7.47;;;;;;;;;;4976333;28;20433;-55
2022/10/05 08:22:57;;;;;;;8.50;7.60;;;;;;;;;;4959427;28;20449;-57
2022/10/05 08:25:45;;;;;;;12.97;8.83;;;;;;;;;;4962293;28;20689;-56
2022/10/05 08:28:32;;;;;;;13.17;11.10;;;;;;;;;;4959835;28;20476;-57
2022/10/05 08:31:03;;;;;;;11.97;7.43;;;;;;;;;;4975179;28;20449;-55
2022/10/05 08:33:32;;;;;;;9.30;7.30;;;;;;;;;;4960254;28;21378;-55
2022/10/05 08:36:09;;;;;;;13.23;8.10;;;;;;;;;;4985406;28;20433;-56
2022/10/05 08:38:35;;;;;;;9.43;8.43;;;;;;;;;;4984752;28;20951;-56
2022/10/05 08:41:10;;;;;;;10.50;6.77;;;;;;;;;;4989457;28;20448;-56
2022/10/05 08:43:53;;;;;;;8.70;7.47;;;;;;;;;;4982263;28;20475;-55
2022/10/05 08:46:35;;;;;;;10.50;7.60;;;;;;;;;;4953429;28;20476;-55
2022/10/05 08:49:21;;;;;;;8.83;7.53;;;;;;;;;;5014629;28;20835;-56
2022/10/05 08:52:06;;;;;;;7.83;6.97;;;;;;;;;;4959302;28;20457;-56
2022/10/05 08:54:37;;;;;;;9.30;7.00;;;;;;;;;;4982378;28;20444;-56
2022/10/05 08:57:21;;;;;;;12.97;7.37;;;;;;;;;;4954338;28;20945;-56
2022/10/05 08:59:54;;;;;;;9.20;7.17;;;;;;;;;;4974666;28;20817;-55
2022/10/05 09:02:25;;;;;;;11.90;7.23;;;;;;;;;;4984329;28;20445;-57
2022/10/05 09:05:10;;;;;;;9.10;7.63;;;;;;;;;;4983628;28;20444;-57
2022/10/05 09:07:55;;;;;;;7.37;6.57;;;;;;;;;;4977442;28;20488;-56
2022/10/05 09:10:27;;;;;;;9.43;6.20;;;;;;;;;;4972059;28;20467;-57
2022/10/05 09:13:03;;;;;;;9.93;6.00;;;;;;;;;;4973172;28;20461;-57
2022/10/05 09:15:44;;;;;;;8.63;6.13;;;;;;;;;;4964472;28;20469;-57
2022/10/05 09:18:19;;;;;;;9.60;6.77;;;;;;;;;;5008445;28;20458;-58
2022/10/05 09:20:52;;;;;;;7.20;6.50;;;;;;;;;;4971324;28;20822;-57
2022/10/05 09:23:18;;;;;;;8.73;6.10;;;;;;;;;;4976198;28;20956;-57
2022/10/05 09:25:57;;;;;;;7.20;6.50;;;;;;;;;;4981557;28;20448;-57
2022/10/05 09:28:42;;;;;;;10.30;6.67;;;;;;;;;;4948047;28;20487;-57
2022/10/05 09:31:11;;;;;;;8.00;6.33;;;;;;;;;;4974858;28;20529;-57
2022/10/05 09:33:50;;;;;;;9.63;6.70;;;;;;;;;;4942589;28;20434;-57
2022/10/05 09:36:42;;;;;;;12.17;6.90;;;;;;;;;;4973164;28;20552;-58
2022/10/05 09:39:08;;;;;;;8.40;5.77;;;;;;;;;;4968486;28;20548;-56
2022/10/05 09:41:34;;;;;;;7.30;5.60;;;;;;;;;;4964190;28;20592;-56
2022/10/05 09:44:27;;;;;;;6.53;5.53;;;;;;;;;;4973206;28;20277;-57
2022/10/05 09:47:03;;;;;;;6.27;4.90;;;;;;;;;;4960949;28;20445;-56
2022/10/05 09:49:33;;;;;;;6.03;4.77;;;;;;;;;;5010089;28;20484;-56
2022/10/05 09:52:02;;;;;;;8.53;5.73;;;;;;;;;;4962414;28;20449;-55
2022/10/05 09:54:42;;;;;;;9.43;6.23;;;;;;;;;;4985155;28;20476;-55
2022/10/05 09:57:08;;;;;;;7.47;5.27;;;;;;;;;;4976802;28;20436;-56
2022/10/05 09:59:34;;;;;;;5.60;5.10;;;;;;;;;;4980015;28;20912;-57
2022/10/05 10:02:04;;;;;;;8.70;5.77;;;;;;;;;;4953932;28;20662;-56
2022/10/05 10:05:00;;;;;;;5.80;5.20;;;;;;;;;;4976134;28;20484;-57
2022/10/05 10:07:26;;;;;;;8.80;5.17;;;;;;;;;;4968046;28;20448;-57
2022/10/05 10:09:52;;;;;;;7.60;5.87;;;;;;;;;;4978132;28;20461;-55
2022/10/05 10:12:18;;;;;;;11.90;5.27;;;;;;;;;;4953484;28;22111;-56
2022/10/05 10:15:03;;;;;;;8.70;4.83;;;;;;;;;;4980276;28;20429;-56
2022/10/05 10:17:48;;;;;;;7.97;5.50;;;;;;;;;;4976363;28;20424;-57
2022/10/05 10:20:46;;;;;;;5.50;4.80;;;;;;;;;;4975094;28;20439;-56
2022/10/05 10:23:18;;;;;;;6.43;4.70;;;;;;;;;;4938274;28;20436;-55
2022/10/05 10:25:54;;;;;;;5.37;4.83;;;;;;;;;;4981403;28;20946;-55
2022/10/05 10:28:38;;;;;;;4.87;4.47;;;;;;;;;;4968054;28;21009;-56
2022/10/05 10:31:13;;;;;;;5.07;4.00;;;;;;;;;;4981714;28;20926;-56
2022/10/05 10:33:58;;;;;;;8.00;4.60;;;;;;;;;;4946101;28;20452;-57
2022/10/05 10:36:43;;;;;;;4.50;3.90;;;;;;;;;;4982029;28;20961;-56
2022/10/05 10:39:12;;;;;;;6.00;4.60;;;;;;;;;;4980046;28;20437;-57
2022/10/05 10:41:41;;;;;;;4.57;3.80;;;;;;;;;;5007853;28;20536;-55
2022/10/05 10:44:16;;;;;;;4.80;3.73;;;;;;;;;;4957879;28;20990;-58
2022/10/05 10:46:48;;;;;;;4.43;3.10;;;;;;;;;;4982515;28;20439;-58
2022/10/05 10:49:36;;;;;;;6.53;3.10;;;;;;;;;;4982707;28;21179;-57
2022/10/05 10:52:23;;;;;;;4.10;2.80;;;;;;;;;;5019955;28;20449;-57
2022/10/05 10:55:05;;;;;;;4.23;2.97;;;;;;;;;;4970243;28;20506;-57
2022/10/05 10:57:50;;;;;;;3.03;2.00;;;;;;;;;;4978065;28;20471;-57
2022/10/05 11:00:23;;;;;;;2.90;1.50;;;;;;;;;;4955314;28;20955;-57
2022/10/05 11:03:01;;;;;;;2.60;1.97;;;;;;;;;;4978054;28;20526;-56
2022/10/05 11:05:54;;;;;;;5.70;1.93;;;;;;;;;;4984942;28;20448;-53
2022/10/05 11:08:39;;;;;;;4.60;1.70;;;;;;;;;;4939756;28;20501;-57
2022/10/05 11:11:08;;;;;;;2.37;2.00;;;;;;;;;;4983544;28;20443;-55
2022/10/05 11:13:40;;;;;;;2.53;1.87;;;;;;;;;;4946039;28;21142;-54
2022/10/05 11:16:25;;;;;;;6.70;1.77;;;;;;;;;;4975892;28;20921;-55
2022/10/05 11:18:51;;;;;;;3.23;2.20;;;;;;;;;;4963148;28;20449;-57
2022/10/05 11:21:24;;;;;;;3.40;2.60;;;;;;;;;;4969614;28;20521;-56
2022/10/05 11:24:11;;;;;;;2.97;2.23;;;;;;;;;;4953810;28;21037;-55
2022/10/05 11:26:37;;;;;;;2.20;1.70;;;;;;;;;;5013331;28;20559;-56
2022/10/05 11:29:22;;;;;;;2.73;2.27;;;;;;;;;;4953082;28;21316;-55
2022/10/05 11:31:51;;;;;;;5.10;2.30;;;;;;;;;;4974179;28;20448;-56
2022/10/05 11:34:38;;;;;;;4.10;2.10;;;;;;;;;;4976365;28;20805;-54
2022/10/05 11:37:19;;;;;;;3.77;2.10;;;;;;;;;;4973205;28;20536;-55
2022/10/05 11:39:51;;;;;;;2.90;2.33;;;;;;;;;;4969848;28;20433;-54
2022/10/05 11:42:30;;;;;;;5.03;3.10;;;;;;;;;;4979882;28;20478;-57
2022/10/05 11:45:25;;;;;;;2.87;1.87;;;;;;;;;;4956617;28;20473;-55
2022/10/05 11:47:57;;;;;;;3.57;2.30;;;;;;;;;;4965771;28;22536;-54
2022/10/05 11:50:46;;;;;;;2.63;2.30;;;;;;;;;;4966917;28;20430;-57
2022/10/05 11:53:21;;;;;;;4.43;2.57;;;;;;;;;;4912515;28;21252;-55
2022/10/05 11:55:48;;;;;;;4.87;4.47;;;;;;;;;;4936324;28;20451;-53
2022/10/05 11:58:14;;;;;;;2.40;2.10;;;;;;;;;;4919509;28;20456;-55
2022/10/05 12:00:44;;;;;;;6.23;2.80;;;;;;;;;;4942656;28;20554;-56
2022/10/05 12:03:15;;;;;;;8.10;2.60;;;;;;;;;;4920647;28;20529;-56
2022/10/05 12:05:41;;;;;;;3.10;2.73;;;;;;;;;;4944276;28;23830;-55
2022/10/05 12:08:22;;;;;;;3.63;2.57;;;;;;;;;;4946299;28;20998;-55
2022/10/05 12:10:55;;;;;;;2.37;1.93;;;;;;;;;;4935883;28;20500;-57
2022/10/05 12:13:34;;;;;;;2.50;2.10;;;;;;;;;;4972775;28;20429;-55
2022/10/05 12:16:02;;;;;;;2.60;2.00;;;;;;;;;;4955790;28;20452;-55
2022/10/05 12:18:32;;;;;;;2.80;1.93;;;;;;;;;;4980161;28;20508;-55
2022/10/05 12:21:00;;;;;;;2.97;2.67;;;;;;;;;;4962063;28;20484;-56
2022/10/05 12:23:37;;;;;;;3.00;2.20;;;;;;;;;;4982495;28;20468;-55
2022/10/05 12:26:03;;;;;;;2.77;2.33;;;;;;;;;;4940509;28;23516;-54
2022/10/05 12:28:48;;;;;;;4.83;2.77;;;;;;;;;;4971468;28;21602;-54
2022/10/05 12:31:17;;;;;;;2.77;2.50;;;;;;;;;;4951193;28;20267;-54
2022/10/05 12:33:49;;;;;;;2.70;2.03;;;;;;;;;;4976368;28;20447;-54
2022/10/05 12:36:23;;;;;;;2.73;2.40;;;;;;;;;;4938997;28;21349;-56
2022/10/05 12:38:52;;;;;;;3.67;2.17;;;;;;;;;;4973141;28;20456;-55
2022/10/05 12:41:24;;;;;;;4.63;2.40;;;;;;;;;;4950146;28;20453;-54
2022/10/05 12:44:01;;;;;;;3.20;2.30;;;;;;;;;;4972929;28;21085;-56
2022/10/05 12:46:27;;;;;;;2.80;1.70;;;;;;;;;;4927703;28;21085;-56
2022/10/05 12:48:56;;;;;;;2.90;2.20;;;;;;;;;;4974184;28;20476;-57
2022/10/05 12:51:29;;;;;;;2.33;1.80;;;;;;;;;;4951245;28;20213;-56
2022/10/05 12:53:57;;;;;;;5.03;2.50;;;;;;;;;;4954225;28;21063;-56
2022/10/05 12:56:29;;;;;;;2.70;1.87;;;;;;;;;;5001741;28;20441;-55
2022/10/05 12:59:13;;;;;;;2.50;1.63;;;;;;;;;;4970943;28;20433;-55
2022/10/05 13:01:43;;;;;;;2.03;1.73;;;;;;;;;;4964798;28;20461;-56
2022/10/05 13:04:24;;;;;;;2.20;1.53;;;;;;;;;;4954344;28;21017;-55
2022/10/05 13:07:00;;;;;;;2.23;1.67;;;;;;;;;;4965345;28;20438;-55
2022/10/05 13:09:32;;;;;;;3.07;2.77;;;;;;;;;;4996119;28;20487;-55
2022/10/05 13:12:00;;;;;;;2.37;1.80;;;;;;;;;;4975698;28;20441;-55
2022/10/05 13:14:41;;;;;;;2.60;1.87;;;;;;;;;;4965814;28;20475;-55
2022/10/05 13:17:12;;;;;;;2.80;2.20;;;;;;;;;;4976504;28;20634;-55
2022/10/05 13:19:45;;;;;;;3.40;1.50;;;;;;;;;;4940239;28;20947;-55
2022/10/05 13:22:21;;;;;;;3.80;1.70;;;;;;;;;;4961948;28;20448;-55
2022/10/05 13:24:53;;;;;;;3.33;2.00;;;;;;;;;;4951020;28;20441;-55
2022/10/05 13:27:20;;;;;;;2.63;1.90;;;;;;;;;;4966948;28;20996;-54
2022/10/05 13:30:04;;;;;;;2.77;1.80;;;;;;;;;;4974144;28;20570;-54
2022/10/05 13:32:34;;;;;;;2.00;1.47;;;;;;;;;;4980606;28;20457;-54
2022/10/05 13:35:19;;;;;;;3.70;1.73;;;;;;;;;;4954876;28;20920;-56
2022/10/05 13:37:52;;;;;;;3.43;1.47;;;;;;;;;;4984378;28;20525;-54
2022/10/05 13:40:35;;;;;;;2.67;1.77;;;;;;;;;;4970498;28;20471;-56
2022/10/05 13:43:10;;;;;;;3.00;1.73;;;;;;;;;;4979484;28;20433;-57
2022/10/05 13:45:39;;;;;;;2.00;1.37;;;;;;;;;;4960723;28;20459;-55
2022/10/05 13:48:09;;;;;;;2.50;1.33;;;;;;;;;;5013465;28;20482;-56
2022/10/05 13:50:37;;;;;;;2.20;1.37;;;;;;;;;;4997402;28;20439;-58
2022/10/05 13:53:25;;;;;;;2.10;1.50;;;;;;;;;;4984139;28;20442;-56
2022/10/05 13:55:56;;;;;;;2.20;1.50;;;;;;;;;;4942363;28;20455;-56
2022/10/05 13:58:53;;;;;;;2.20;1.10;;;;;;;;;;5005173;28;20464;-56
2022/10/05 14:01:40;;;;;;;2.10;1.13;;;;;;;;;;4963076;28;20954;-57
2022/10/05 14:04:16;;;;;;;5.07;2.57;;;;;;;;;;4964875;28;20523;-57
2022/10/05 14:06:41;;;;;;;5.13;3.30;;;;;;;;;;4951074;28;21013;-57
2022/10/05 14:09:28;;;;;;;4.53;3.33;;;;;;;;;;4978525;28;20562;-56
2022/10/05 14:11:54;;;;;;;5.00;2.97;;;;;;;;;;4978235;28;21029;-57
2022/10/05 14:14:24;;;;;;;6.43;3.50;;;;;;;;;;4979721;28;20557;-57
2022/10/05 14:16:56;;;;;;;7.37;4.17;;;;;;;;;;4953618;28;20531;-54
2022/10/05 14:19:22;;;;;;;6.43;3.67;;;;;;;;;;4955571;28;20433;-57
2022/10/05 14:21:52;;;;;;;5.00;3.93;;;;;;;;;;4981302;28;20493;-54
2022/10/05 14:24:26;;;;;;;4.73;3.63;;;;;;;;;;4976132;28;21013;-56
2022/10/05 14:26:53;;;;;;;6.73;3.93;;;;;;;;;;4982151;28;20535;-57
2022/10/05 14:29:19;;;;;;;7.67;3.60;;;;;;;;;;4942280;28;22271;-54
2022/10/05 14:32:08;;;;;;;7.30;3.50;;;;;;;;;;4959043;28;20444;-55
2022/10/05 14:34:35;;;;;;;4.33;3.17;;;;;;;;;;4978735;28;20567;-55
2022/10/05 14:37:03;;;;;;;7.80;3.70;;;;;;;;;;4967481;28;20429;-55
2022/10/05 14:39:30;;;;;;;4.70;3.20;;;;;;;;;;4974738;28;20471;-56
2022/10/05 14:41:56;;;;;;;3.43;3.10;;;;;;;;;;4956579;28;20531;-54
2022/10/05 14:44:25;;;;;;;5.10;4.03;;;;;;;;;;4972680;28;20443;-55
2022/10/05 14:46:52;;;;;;;6.30;3.73;;;;;;;;;;4961749;28;20448;-56
2022/10/05 14:49:19;;;;;;;6.43;3.67;;;;;;;;;;4984291;28;20480;-55
2022/10/05 14:51:45;;;;;;;9.63;3.87;;;;;;;;;;4964351;28;20428;-56
2022/10/05 14:54:27;;;;;;;6.90;3.77;;;;;;;;;;4982736;28;20532;-54
2022/10/05 14:57:11;;;;;;;4.97;3.13;;;;;;;;;;4984457;28;21029;-55
2022/10/05 14:59:44;;;;;;;4.90;2.80;;;;;;;;;;4951428;28;20452;-55
2022/10/05 15:02:23;;;;;;;6.33;3.07;;;;;;;;;;4982983;28;20429;-53
2022/10/05 15:05:09;;;;;;;16.07;4.20;;;;;;;;;;4956780;28;20437;-54
2022/10/05 15:07:40;;;;;;;11.33;3.40;;;;;;;;;;4984145;28;20428;-55
2022/10/05 15:10:25;;;;;;;5.20;2.90;;;;;;;;;;4987144;28;20471;-54
2022/10/05 15:12:53;;;;;;;4.63;3.50;;;;;;;;;;4992064;28;20892;-57
2022/10/05 15:15:38;;;;;;;4.13;3.20;;;;;;;;;;4957565;28;20954;-54
2022/10/05 15:18:13;;;;;;;4.10;2.97;;;;;;;;;;4962071;28;20432;-57
2022/10/05 15:20:46;;;;;;;5.60;3.40;;;;;;;;;;4979862;28;20441;-55
2022/10/05 15:23:19;;;;;;;5.33;3.30;;;;;;;;;;4947479;28;20557;-54
2022/10/05 15:25:54;;;;;;;4.10;3.23;;;;;;;;;;4975984;28;20512;-57